Time;durP1;ratioP1;P1;durP2;ratioP2;P2;SDS_P1;SDS_P2;PMS_P1;PMS_P2;Temp;Humidity;BMP_temperature;BMP_pressure;BME280_temperature;BME280_humidity;BME280_pressure;Samples;Min_cycle;Max_cycle;Signal;HPM_P1;HPM_P2
2023/06/30 00:01:51;;;;;;;12.98;8.63;;;;;;;14.73;100.00;97580.63;5042481;28;20028;-78
2023/06/30 00:04:22;;;;;;;9.98;8.18;;;;;;;14.60;100.00;97576.19;5040156;28;20056;-78
2023/06/30 00:06:49;;;;;;;15.27;8.95;;;;;;;14.68;100.00;97578.25;5039684;28;20567;-78
2023/06/30 00:09:19;;;;;;;9.57;7.53;;;;;;;14.69;100.00;97574.59;5020998;28;20023;-78
2023/06/30 00:11:44;;;;;;;10.52;8.40;;;;;;;14.62;100.00;97568.84;5033513;28;20403;-79
2023/06/30 00:14:10;;;;;;;12.85;8.15;;;;;;;14.50;100.00;97571.63;5043695;28;20029;-80
2023/06/30 00:16:35;;;;;;;22.40;13.85;;;;;;;14.45;100.00;97571.13;5056708;28;20025;-81
2023/06/30 00:19:02;;;;;;;14.40;8.20;;;;;;;14.47;100.00;97579.94;5056795;28;20469;-81
2023/06/30 00:21:28;;;;;;;15.95;8.95;;;;;;;14.41;100.00;97570.50;5036797;28;20025;-81
2023/06/30 00:24:01;;;;;;;17.02;10.07;;;;;;;14.34;100.00;97574.63;5020031;28;20087;-81
2023/06/30 00:26:28;;;;;;;13.90;8.93;;;;;;;14.27;100.00;97577.88;5020850;28;20497;-81
2023/06/30 00:28:54;;;;;;;13.00;8.77;;;;;;;14.24;100.00;97568.22;5019701;28;20068;-81
2023/06/30 00:31:20;;;;;;;13.20;9.40;;;;;;;14.21;100.00;97575.66;5028032;28;20056;-81
2023/06/30 00:33:45;;;;;;;11.60;8.32;;;;;;;14.15;100.00;97573.44;5045109;28;20550;-81
2023/06/30 00:36:11;;;;;;;16.75;8.63;;;;;;;14.23;100.00;97569.19;5036101;28;20120;-80
2023/06/30 00:38:36;;;;;;;11.75;8.50;;;;;;;14.17;100.00;97575.03;5051392;28;20028;-81
2023/06/30 00:41:02;;;;;;;12.27;8.00;;;;;;;14.27;100.00;97577.88;5039243;28;20052;-81
2023/06/30 00:43:28;;;;;;;13.40;8.65;;;;;;;14.34;100.00;97577.31;5039069;28;20036;-81
2023/06/30 00:45:53;;;;;;;10.93;7.97;;;;;;;14.35;100.00;97572.78;5039231;28;20114;-81
2023/06/30 00:48:19;;;;;;;13.07;8.07;;;;;;;14.26;100.00;97568.94;5038907;28;20028;-81
2023/06/30 00:50:45;;;;;;;14.20;7.90;;;;;;;14.29;100.00;97574.09;5039126;28;20039;-82
2023/06/30 00:53:12;;;;;;;17.30;7.80;;;;;;;14.25;100.00;97569.91;5039302;28;20032;-81
2023/06/30 00:55:44;;;;;;;12.60;7.88;;;;;;;14.23;100.00;97571.00;5039267;28;20086;-81
2023/06/30 00:58:09;;;;;;;13.20;9.02;;;;;;;14.21;100.00;97568.47;5037875;28;20111;-81
2023/06/30 01:00:35;;;;;;;15.10;8.30;;;;;;;14.20;100.00;97572.09;5038389;28;20120;-81
2023/06/30 01:03:15;;;;;;;18.45;8.65;;;;;;;14.17;100.00;97577.72;5055689;28;20099;-81
2023/06/30 01:06:00;;;;;;;15.90;8.85;;;;;;;14.10;100.00;97576.47;5047696;28;20029;-81
2023/06/30 01:08:38;;;;;;;12.90;8.55;;;;;;;14.10;100.00;97574.63;5034199;28;20031;-81
2023/06/30 01:11:04;;;;;;;18.85;8.82;;;;;;;14.10;100.00;97574.63;5038103;28;20032;-80
2023/06/30 01:13:30;;;;;;;13.57;8.18;;;;;;;14.17;100.00;97576.84;5034491;28;20024;-81
2023/06/30 01:15:57;;;;;;;12.13;8.70;;;;;;;14.10;100.00;97577.31;5055274;28;20412;-81
2023/06/30 01:18:23;;;;;;;14.48;8.85;;;;;;;14.11;100.00;97578.19;5038298;28;20033;-81
2023/06/30 01:20:49;;;;;;;15.25;9.02;;;;;;;14.04;100.00;97577.78;5054792;28;20518;-81
2023/06/30 01:23:32;;;;;;;13.77;9.27;;;;;;;14.05;100.00;97578.66;5038509;28;20028;-82
2023/06/30 01:25:59;;;;;;;14.85;9.20;;;;;;;13.98;100.00;97567.50;5038016;28;20052;-80
2023/06/30 01:28:27;;;;;;;13.43;8.85;;;;;;;13.93;100.00;97568.81;5037893;28;20086;-80
2023/06/30 01:30:54;;;;;;;16.70;9.20;;;;;;;13.91;100.00;97576.13;5054800;28;20028;-80
2023/06/30 01:33:21;;;;;;;12.00;8.40;;;;;;;13.94;100.00;97578.56;5054799;28;20094;-81
2023/06/30 01:35:46;;;;;;;13.95;8.70;;;;;;;13.87;100.00;97564.72;5050523;28;20086;-81
2023/06/30 01:38:12;;;;;;;18.02;8.80;;;;;;;13.85;100.00;97566.69;5037662;28;20020;-80
2023/06/30 01:40:37;;;;;;;14.82;8.10;;;;;;;13.84;100.00;97570.34;5037605;28;20040;-81
2023/06/30 01:43:03;;;;;;;15.65;8.95;;;;;;;13.84;100.00;97564.13;5038131;28;20089;-81
2023/06/30 01:45:29;;;;;;;14.80;8.48;;;;;;;13.80;100.00;97565.31;5050607;28;20105;-81
2023/06/30 01:47:56;;;;;;;13.88;9.75;;;;;;;13.81;100.00;97570.56;5038026;28;20487;-81
2023/06/30 01:50:22;;;;;;;12.65;8.95;;;;;;;13.73;100.00;97566.75;5054678;28;20026;-80
2023/06/30 01:52:48;;;;;;;16.95;9.68;;;;;;;13.73;100.00;97570.28;5054617;28;20023;-81
2023/06/30 01:55:14;;;;;;;18.20;9.50;;;;;;;13.71;100.00;97569.56;5038232;28;20036;-81
2023/06/30 01:57:39;;;;;;;12.52;9.10;;;;;;;13.68;100.00;97568.94;5037214;28;20503;-81
2023/06/30 02:00:05;;;;;;;15.60;9.05;;;;;;;13.73;100.00;97564.06;5037925;28;20029;-82
2023/06/30 02:02:31;;;;;;;14.95;9.65;;;;;;;13.73;100.00;97562.22;5037469;28;20031;-82
2023/06/30 02:04:57;;;;;;;13.27;9.02;;;;;;;13.58;100.00;97568.75;5054498;28;20016;-82
2023/06/30 02:07:23;;;;;;;14.38;9.23;;;;;;;13.60;100.00;97568.66;5050056;28;20537;-82
2023/06/30 02:09:49;;;;;;;17.10;9.30;;;;;;;13.57;100.00;97561.63;5053804;28;20370;-81
2023/06/30 02:12:15;;;;;;;15.45;8.88;;;;;;;13.54;100.00;97565.41;5029660;28;20039;-81
2023/06/30 02:14:40;;;;;;;15.23;9.15;;;;;;;13.53;100.00;97549.41;5037252;28;20032;-81
2023/06/30 02:17:08;;;;;;;13.93;9.82;;;;;;;13.67;100.00;97567.19;5049784;28;20044;-81
2023/06/30 02:19:34;;;;;;;13.02;9.15;;;;;;;13.63;100.00;97552.28;5036864;28;20075;-79
2023/06/30 02:21:59;;;;;;;13.57;9.43;;;;;;;13.61;100.00;97559.59;5037401;28;20060;-81
2023/06/30 02:24:25;;;;;;;17.83;9.23;;;;;;;13.58;100.00;97566.91;5053920;28;20407;-81
2023/06/30 02:26:50;;;;;;;16.77;9.18;;;;;;;13.47;100.00;97550.69;5032640;28;20492;-81
2023/06/30 02:29:16;;;;;;;15.82;9.68;;;;;;;13.52;100.00;97563.81;5053564;28;20025;-80
2023/06/30 02:31:41;;;;;;;20.08;11.77;;;;;;;13.53;100.00;97560.16;5053052;28;20029;-80
2023/06/30 02:34:07;;;;;;;19.52;9.90;;;;;;;13.54;100.00;97551.13;5053286;28;20467;-81
2023/06/30 02:36:32;;;;;;;13.00;9.40;;;;;;;13.57;100.00;97551.75;5036883;28;20031;-81
2023/06/30 02:38:58;;;;;;;12.77;9.52;;;;;;;13.46;100.00;97556.22;5036760;28;20031;-81
2023/06/30 02:41:23;;;;;;;19.83;9.93;;;;;;;13.46;100.00;97559.75;5036710;28;20468;-81
2023/06/30 02:43:49;;;;;;;19.35;10.52;;;;;;;13.42;100.00;97555.56;5054224;28;20056;-81
2023/06/30 02:46:14;;;;;;;21.25;9.00;;;;;;;13.38;100.00;97551.38;5050030;28;20125;-81
2023/06/30 02:48:40;;;;;;;12.77;8.15;;;;;;;13.35;100.00;97546.22;5037318;28;20498;-81
2023/06/30 02:51:05;;;;;;;16.52;8.90;;;;;;;13.28;100.00;97550.34;5071750;28;20099;-81
2023/06/30 02:53:31;;;;;;;14.32;9.13;;;;;;;13.34;100.00;97547.22;5037779;28;20016;-81
2023/06/30 02:55:56;;;;;;;15.57;9.32;;;;;;;13.33;100.00;97556.25;5053087;28;20145;-81
2023/06/30 02:58:22;;;;;;;19.13;9.38;;;;;;;13.30;100.00;97544.84;5053284;28;20027;-81
2023/06/30 03:00:49;;;;;;;16.98;9.55;;;;;;;13.31;100.00;97550.13;5034701;28;20087;-81
2023/06/30 03:03:14;;;;;;;19.45;9.77;;;;;;;13.28;100.00;97546.81;5050796;28;20024;-80
2023/06/30 03:05:40;;;;;;;24.08;10.57;;;;;;;13.38;100.00;97554.06;5071106;28;20112;-79
2023/06/30 03:08:05;;;;;;;44.58;13.60;;;;;;;13.40;100.00;97551.28;5053496;28;20056;-81
2023/06/30 03:10:31;;;;;;;18.48;10.30;;;;;;;13.39;100.00;97552.25;5036434;28;20032;-82
2023/06/30 03:12:57;;;;;;;39.22;11.52;;;;;;;13.34;100.00;97549.91;5036639;28;20028;-80
2023/06/30 03:15:22;;;;;;;19.98;10.32;;;;;;;13.31;100.00;97536.69;5048951;28;20472;-81
2023/06/30 03:17:48;;;;;;;28.95;12.52;;;;;;;13.22;100.00;97547.25;5036385;28;20025;-80
2023/06/30 03:20:13;;;;;;;25.55;12.20;;;;;;;13.17;100.00;97552.94;5053541;28;20040;-81
2023/06/30 03:22:43;;;;;;;35.50;14.32;;;;;;;13.17;100.00;97552.06;5040312;28;20020;-82
2023/06/30 03:25:09;;;;;;;27.08;12.30;;;;;;;13.27;100.00;97551.31;5057147;28;20024;-82
2023/06/30 03:27:35;;;;;;;22.10;12.38;;;;;;;13.23;100.00;97560.56;5057094;28;20040;-83
2023/06/30 03:30:03;;;;;;;22.13;11.60;;;;;;;13.27;100.00;97545.94;5056836;28;20023;-82
2023/06/30 03:32:28;;;;;;;23.42;12.05;;;;;;;13.28;100.00;97544.97;5040167;28;20020;-82
2023/06/30 03:34:54;;;;;;;27.35;13.05;;;;;;;13.41;100.00;97559.22;5056988;28;20473;-81
2023/06/30 03:37:19;;;;;;;20.17;12.25;;;;;;;13.50;100.00;97563.91;5057005;28;20031;-80
2023/06/30 03:39:45;;;;;;;25.95;12.40;;;;;;;13.45;100.00;97555.34;5040268;28;20094;-81
2023/06/30 03:42:10;;;;;;;26.63;13.48;;;;;;;13.60;100.00;97557.91;5056869;28;20051;-81
2023/06/30 03:44:36;;;;;;;19.52;11.73;;;;;;;13.61;100.00;97556.91;5058469;28;20032;-83
2023/06/30 03:47:01;;;;;;;18.92;11.30;;;;;;;13.66;100.00;97557.44;5040269;28;20032;-80
2023/06/30 03:49:27;;;;;;;17.17;11.40;;;;;;;13.64;100.00;97556.66;5040156;28;20399;-81
2023/06/30 03:51:52;;;;;;;18.92;11.38;;;;;;;13.63;100.00;97560.34;5057458;28;20504;-80
2023/06/30 03:54:18;;;;;;;16.60;11.57;;;;;;;13.79;100.00;97563.59;5056850;28;20454;-81
2023/06/30 03:56:43;;;;;;;29.70;18.15;;;;;;;13.88;100.00;97554.84;5040208;28;20036;-81
2023/06/30 03:59:09;;;;;;;18.27;11.27;;;;;;;13.92;100.00;97550.97;5039431;28;20475;-79
2023/06/30 04:01:37;;;;;;;19.52;10.43;;;;;;;14.01;100.00;97555.63;5039904;28;20115;-82
2023/06/30 04:04:02;;;;;;;15.77;10.38;;;;;;;13.97;100.00;97552.31;5039625;28;20056;-82
2023/06/30 04:06:28;;;;;;;17.58;10.43;;;;;;;14.08;100.00;97548.84;5040153;28;20047;-82
2023/06/30 04:08:53;;;;;;;14.18;10.45;;;;;;;14.16;100.00;97554.47;5056123;28;20504;-82
2023/06/30 04:11:19;;;;;;;19.90;11.80;;;;;;;14.17;100.00;97541.88;5026229;28;20021;-83
2023/06/30 04:13:44;;;;;;;16.98;10.05;;;;;;;14.33;100.00;97546.03;5039510;28;20474;-83
2023/06/30 04:16:10;;;;;;;19.60;11.02;;;;;;;14.35;100.00;97549.44;5040099;28;20024;-81
2023/06/30 04:18:36;;;;;;;18.48;11.50;;;;;;;14.38;100.00;97554.59;5056571;28;20020;-81
2023/06/30 04:21:02;;;;;;;20.02;11.43;;;;;;;14.48;100.00;97554.75;5039789;28;20028;-81
2023/06/30 04:23:28;;;;;;;15.00;9.90;;;;;;;14.57;100.00;97557.56;5056361;28;20020;-81
2023/06/30 04:25:53;;;;;;;15.23;10.32;;;;;;;14.58;100.00;97545.81;5039608;28;20515;-82
2023/06/30 04:28:19;;;;;;;14.68;10.20;;;;;;;14.57;100.00;97541.44;5039665;28;20008;-82
2023/06/30 04:30:44;;;;;;;20.77;11.77;;;;;;;14.70;100.00;97544.00;5039069;28;20023;-82
2023/06/30 04:33:10;;;;;;;15.60;10.35;;;;;;;14.81;100.00;97548.53;5035934;28;20500;-82
2023/06/30 04:35:35;;;;;;;13.30;10.10;;;;;;;14.91;100.00;97549.53;5039021;28;20111;-81
2023/06/30 04:38:02;;;;;;;14.60;9.45;;;;;;;15.04;100.00;97547.59;5039353;28;20381;-83
2023/06/30 04:40:28;;;;;;;20.90;10.63;;;;;;;15.12;100.00;97537.91;5039511;28;20489;-82
2023/06/30 04:42:53;;;;;;;20.98;10.95;;;;;;;15.26;100.00;97535.94;5055352;28;20025;-82
2023/06/30 04:45:19;;;;;;;17.92;10.05;;;;;;;15.37;100.00;97542.16;5030624;28;20025;-82
2023/06/30 04:47:44;;;;;;;17.58;10.27;;;;;;;15.41;100.00;97537.41;5038802;28;20020;-82
2023/06/30 04:50:10;;;;;;;17.58;9.75;;;;;;;15.52;100.00;97538.25;5039240;28;20024;-82
2023/06/30 04:52:35;;;;;;;15.80;9.98;;;;;;;15.79;100.00;97534.25;5055848;28;20032;-80
2023/06/30 04:55:02;;;;;;;17.90;10.23;;;;;;;16.85;100.00;97527.84;5021840;28;20076;-81
2023/06/30 04:57:29;;;;;;;15.68;8.27;;;;;;;17.82;100.00;97514.53;5055762;28;20123;-84
2023/06/30 04:59:54;;;;;;;14.70;8.80;;;;;;;18.77;100.00;97505.50;5073128;28;20028;-83
2023/06/30 05:02:20;;;;;;;12.40;7.68;;;;;;;19.83;100.00;97496.91;5033347;28;20032;-81
2023/06/30 05:04:46;;;;;;;12.55;7.00;;;;;;;20.95;100.00;97494.31;5055149;28;20031;-83
2023/06/30 05:07:11;;;;;;;12.13;8.35;;;;;;;21.76;100.00;97483.81;5039097;28;20090;-83
2023/06/30 05:09:37;;;;;;;17.48;10.32;;;;;;;22.18;100.00;97472.84;5038927;28;20036;-82
2023/06/30 05:12:04;;;;;;;10.68;6.90;;;;;;;23.34;100.00;97469.66;5055058;28;20115;-83
2023/06/30 05:14:30;;;;;;;15.27;8.60;;;;;;;24.06;100.00;97475.78;5039053;28;20028;-83
2023/06/30 05:16:55;;;;;;;12.13;7.00;;;;;;;23.90;100.00;97478.66;5038520;28;20028;-83
2023/06/30 05:19:21;;;;;;;18.38;8.50;;;;;;;24.52;100.00;97482.16;5034947;28;20540;-83
2023/06/30 05:21:47;;;;;;;11.55;7.93;;;;;;;25.06;99.02;97472.78;5052175;28;20020;-83
2023/06/30 05:24:12;;;;;;;11.35;6.05;;;;;;;25.80;94.67;97462.66;5038385;28;20048;-83
2023/06/30 05:26:38;;;;;;;9.00;6.20;;;;;;;25.96;92.65;97467.06;5054915;28;20032;-83
2023/06/30 05:29:05;;;;;;;16.60;6.15;;;;;;;25.56;93.39;97463.00;5037935;28;20035;-82
2023/06/30 05:31:31;;;;;;;9.25;7.20;;;;;;;25.87;91.94;97469.91;5055158;28;20103;-83
2023/06/30 05:33:57;;;;;;;16.92;6.95;;;;;;;25.66;90.15;97467.13;5037575;28;20726;-82
2023/06/30 05:36:22;;;;;;;18.35;7.57;;;;;;;26.12;91.94;97469.56;5051698;28;20099;-83
2023/06/30 05:38:48;;;;;;;66.30;41.03;;;;;;;26.56;85.68;97466.66;5051770;28;20452;-83
2023/06/30 05:41:13;;;;;;;21.35;9.38;;;;;;;25.76;91.65;97473.16;5037650;28;20025;-83
2023/06/30 05:43:40;;;;;;;11.90;6.90;;;;;;;26.07;89.02;97470.16;5037616;28;20032;-84
2023/06/30 05:46:05;;;;;;;12.00;7.05;;;;;;;26.32;87.06;97474.25;5037687;28;20403;-84
2023/06/30 05:48:31;;;;;;;18.83;6.80;;;;;;;26.37;89.06;97476.41;5038140;28;20036;-83
2023/06/30 05:50:56;;;;;;;12.73;6.50;;;;;;;26.43;86.63;97472.88;5054261;28;20103;-83
2023/06/30 05:53:22;;;;;;;12.57;6.20;;;;;;;26.37;86.06;97469.03;5054579;28;20510;-83
2023/06/30 05:55:48;;;;;;;10.73;6.40;;;;;;;26.32;86.03;97467.94;5037681;28;20039;-82
2023/06/30 05:58:13;;;;;;;17.25;10.02;;;;;;;25.71;91.19;97472.03;5054224;28;20063;-82
2023/06/30 06:00:39;;;;;;;8.80;6.10;;;;;;;26.70;85.77;97466.59;5037180;28;20028;-83
2023/06/30 06:03:04;;;;;;;12.73;7.65;;;;;;;26.67;81.52;97471.66;5053818;28;20123;-84
2023/06/30 06:05:30;;;;;;;57.63;40.50;;;;;;;26.44;86.81;97481.97;5037249;28;20059;-84
2023/06/30 06:07:55;;;;;;;17.05;6.95;;;;;;;27.29;80.91;97457.97;5037695;28;20377;-84
2023/06/30 06:10:21;;;;;;;18.40;7.20;;;;;;;28.29;75.05;97464.63;5037250;28;20059;-84
2023/06/30 06:12:46;;;;;;;13.98;6.68;;;;;;;29.51;64.97;97460.41;5037415;28;20062;-83
2023/06/30 06:15:12;;;;;;;9.48;5.68;;;;;;;30.28;59.01;97453.94;5037294;28;20557;-82
2023/06/30 06:17:37;;;;;;;14.48;7.28;;;;;;;30.55;57.68;97462.94;5054385;28;20036;-83
2023/06/30 06:20:03;;;;;;;10.68;5.80;;;;;;;30.33;55.40;97453.31;5037397;28;20112;-82
2023/06/30 06:22:29;;;;;;;16.85;7.20;;;;;;;30.02;58.64;97454.09;5034034;28;20021;-82
2023/06/30 06:24:54;;;;;;;15.00;10.20;;;;;;;29.78;59.15;97458.41;5048989;28;20032;-83
2023/06/30 06:27:20;;;;;;;10.93;8.05;;;;;;;30.20;57.95;97459.75;5053146;28;20495;-83
2023/06/30 06:29:45;;;;;;;23.13;14.90;;;;;;;30.61;54.97;97448.22;5036662;28;20025;-83
2023/06/30 06:32:11;;;;;;;8.38;6.78;;;;;;;31.50;51.11;97443.22;5036766;28;20020;-82
2023/06/30 06:34:38;;;;;;;15.70;6.22;;;;;;;31.77;50.31;97454.00;5036624;28;20067;-83
2023/06/30 06:37:04;;;;;;;7.20;4.95;;;;;;;31.90;49.50;97440.00;5053658;28;20039;-82
2023/06/30 06:39:29;;;;;;;8.85;4.70;;;;;;;31.39;51.41;97445.88;5036397;28;20060;-83
2023/06/30 06:41:56;;;;;;;8.27;4.90;;;;;;;31.60;51.62;97443.53;5036681;28;20031;-83
2023/06/30 06:44:22;;;;;;;6.53;4.13;;;;;;;31.61;50.60;97445.22;5053421;28;20484;-83
2023/06/30 06:46:47;;;;;;;12.38;5.18;;;;;;;29.62;55.86;97458.06;5036455;28;20031;-82
2023/06/30 06:49:13;;;;;;;10.52;4.90;;;;;;;28.96;61.10;97458.97;5052879;28;20021;-83
2023/06/30 06:51:38;;;;;;;6.28;4.38;;;;;;;30.45;55.60;97446.88;5034782;28;20120;-83
2023/06/30 06:54:04;;;;;;;7.60;5.03;;;;;;;31.28;51.08;97439.19;5036261;28;20136;-84
2023/06/30 06:56:29;;;;;;;6.72;6.03;;;;;;;31.47;49.83;97438.13;5035131;28;20037;-83
2023/06/30 06:58:55;;;;;;;7.78;5.38;;;;;;;31.77;49.74;97441.00;5036343;28;20032;-83
2023/06/30 07:01:20;;;;;;;7.60;4.70;;;;;;;32.73;45.61;97433.50;5036262;28;20478;-81
2023/06/30 07:03:46;;;;;;;6.75;5.00;;;;;;;33.19;44.58;97435.50;5045935;28;20040;-84
2023/06/30 07:06:11;;;;;;;5.95;4.03;;;;;;;32.78;45.71;97431.94;5034819;28;20039;-83
2023/06/30 07:08:38;;;;;;;9.07;3.63;;;;;;;32.71;44.52;97435.69;5027805;28;20021;-82
2023/06/30 07:11:06;;;;;;;7.72;4.28;;;;;;;34.09;43.48;97422.00;5035045;28;20025;-83
2023/06/30 07:13:31;;;;;;;5.50;4.45;;;;;;;34.30;41.64;97420.53;5036117;28;20385;-83
2023/06/30 07:15:57;;;;;;;6.25;4.55;;;;;;;34.36;41.32;97411.19;5036119;28;20047;-83
2023/06/30 07:18:22;;;;;;;5.93;4.25;;;;;;;34.85;40.44;97415.16;5035960;28;20029;-83
2023/06/30 07:20:48;;;;;;;7.00;4.45;;;;;;;33.90;41.13;97414.13;5052766;28;20031;-83
2023/06/30 07:23:14;;;;;;;9.50;4.10;;;;;;;31.89;44.52;97424.47;5044447;28;20040;-83
2023/06/30 07:25:40;;;;;;;6.78;4.35;;;;;;;33.01;43.58;97416.19;5052305;28;20111;-83
2023/06/30 07:28:05;;;;;;;6.72;4.18;;;;;;;33.84;42.13;97407.59;5034923;28;20024;-83
2023/06/30 07:30:31;;;;;;;9.35;5.28;;;;;;;33.12;42.39;97409.00;5035898;28;20055;-83
2023/06/30 07:32:56;;;;;;;8.68;5.00;;;;;;;32.32;43.58;97414.09;5034476;28;20048;-82
2023/06/30 07:35:23;;;;;;;10.77;4.45;;;;;;;32.76;43.25;97406.41;5036204;28;20029;-84
2023/06/30 07:37:49;;;;;;;5.05;4.00;;;;;;;31.75;43.87;97411.88;5035812;28;20115;-82
2023/06/30 07:40:15;;;;;;;6.85;5.10;;;;;;;32.06;42.09;97400.63;5035875;28;20032;-84
2023/06/30 07:42:41;;;;;;;5.10;3.38;;;;;;;31.94;42.36;97400.53;5035625;28;20400;-82
2023/06/30 07:45:08;;;;;;;6.65;3.65;;;;;;;32.79;41.79;97392.94;5036063;28;20025;-82
2023/06/30 07:47:34;;;;;;;9.57;4.22;;;;;;;34.24;39.55;97386.22;5035749;28;20124;-82
2023/06/30 07:50:01;;;;;;;7.20;3.53;;;;;;;34.69;38.17;97383.47;5052647;28;20029;-83
2023/06/30 07:52:27;;;;;;;6.18;3.55;;;;;;;35.31;36.92;97380.59;5036216;28;20017;-82
2023/06/30 07:54:55;;;;;;;4.05;3.15;;;;;;;35.88;36.20;97369.97;5052490;28;22193;-83
2023/06/30 07:57:25;;;;;;;3.47;3.10;;;;;;;36.19;35.18;97377.59;5036238;28;20024;-83
2023/06/30 07:59:51;;;;;;;7.55;3.28;;;;;;;36.44;35.43;97371.47;5052294;28;20020;-83
2023/06/30 08:02:17;;;;;;;7.40;3.65;;;;;;;36.23;34.99;97373.22;5036031;28;20032;-84
2023/06/30 08:04:43;;;;;;;9.05;4.15;;;;;;;36.17;33.57;97368.69;5035905;28;20535;-84
2023/06/30 08:07:08;;;;;;;6.85;2.40;;;;;;;36.11;32.55;97355.81;5052855;28;20067;-82
2023/06/30 08:09:34;;;;;;;3.20;2.35;;;;;;;36.57;32.05;97351.56;5039649;28;20016;-84
2023/06/30 08:11:59;;;;;;;6.13;2.00;;;;;;;35.61;33.13;97353.22;5056140;28;20021;-83
2023/06/30 08:14:25;;;;;;;5.95;2.10;;;;;;;36.20;32.78;97364.53;5055985;28;20035;-83
2023/06/30 08:16:50;;;;;;;3.20;2.45;;;;;;;36.37;31.97;97362.47;5039094;28;20020;-83
2023/06/30 08:19:16;;;;;;;4.53;3.10;;;;;;;36.43;32.61;97367.81;5039584;28;20043;-83
2023/06/30 08:21:41;;;;;;;2.97;2.10;;;;;;;36.59;32.56;97354.91;5055606;28;20016;-82
2023/06/30 08:24:07;;;;;;;9.68;5.15;;;;;;;37.19;30.72;97339.78;5039258;28;20088;-83
2023/06/30 08:26:32;;;;;;;5.00;3.03;;;;;;;37.70;30.00;97344.56;5039323;28;20064;-84
2023/06/30 08:28:58;;;;;;;4.15;3.30;;;;;;;36.99;30.53;97342.44;5055902;28;20490;-82
2023/06/30 08:31:24;;;;;;;4.32;3.17;;;;;;;37.05;30.65;97330.19;5039126;28;20024;-82
2023/06/30 08:33:49;;;;;;;4.85;2.47;;;;;;;37.98;30.24;97329.31;5038888;28;20048;-82
2023/06/30 08:36:15;;;;;;;6.95;2.55;;;;;;;37.97;30.20;97322.91;5038748;28;20032;-82
2023/06/30 08:38:40;;;;;;;4.88;2.10;;;;;;;38.28;29.67;97325.75;5038866;28;20024;-82
2023/06/30 08:41:06;;;;;;;2.50;2.30;;;;;;;38.53;29.56;97320.22;5052121;28;20021;-81
2023/06/30 08:43:32;;;;;;;4.15;2.40;;;;;;;38.29;29.75;97319.91;5072362;28;20103;-82
2023/06/30 08:46:01;;;;;;;2.78;2.30;;;;;;;37.71;30.02;97312.72;5038238;28;20484;-82
2023/06/30 08:48:27;;;;;;;3.47;2.60;;;;;;;37.37;29.80;97303.91;5055823;28;20036;-82
2023/06/30 08:50:53;;;;;;;2.28;2.00;;;;;;;38.74;28.66;97307.91;5038613;28;20056;-80
2023/06/30 08:53:19;;;;;;;6.47;2.75;;;;;;;38.42;28.76;97308.19;5055428;28;20027;-82
2023/06/30 08:55:46;;;;;;;4.18;2.33;;;;;;;38.07;29.15;97301.69;5038900;28;20411;-83
2023/06/30 08:58:12;;;;;;;4.30;2.25;;;;;;;37.94;29.42;97298.28;5034532;28;20028;-82
2023/06/30 09:00:38;;;;;;;5.30;2.28;;;;;;;38.17;29.05;97288.56;5038635;28;20417;-84
2023/06/30 09:03:05;;;;;;;6.60;2.50;;;;;;;38.57;29.04;97287.78;5055182;28;20165;-83
2023/06/30 09:05:32;;;;;;;5.75;2.20;;;;;;;38.68;28.42;97272.69;5039412;28;20021;-83
2023/06/30 09:07:58;;;;;;;4.07;1.85;;;;;;;38.14;29.34;97282.69;5055042;28;20032;-81
2023/06/30 09:10:27;;;;;;;4.15;2.13;;;;;;;39.38;27.74;97284.91;5055049;28;20021;-82
2023/06/30 09:12:57;;;;;;;2.58;2.10;;;;;;;39.58;27.54;97282.03;5038753;28;20056;-82
2023/06/30 09:15:23;;;;;;;5.32;2.10;;;;;;;39.12;27.81;97272.91;5055733;28;20492;-82
2023/06/30 09:17:48;;;;;;;3.22;1.90;;;;;;;39.65;27.61;97276.97;5038516;28;20035;-83
2023/06/30 09:20:14;;;;;;;3.58;2.15;;;;;;;40.53;26.71;97269.47;5037135;28;20412;-83
2023/06/30 09:22:40;;;;;;;4.63;1.60;;;;;;;40.34;25.47;97268.47;5054065;28;20028;-82
2023/06/30 09:25:07;;;;;;;2.42;1.90;;;;;;;40.27;25.93;97262.34;5038346;28;20024;-82
2023/06/30 09:27:36;;;;;;;3.53;2.08;;;;;;;40.28;26.02;97257.56;5055049;28;20480;-83
2023/06/30 09:30:02;;;;;;;7.47;3.60;;;;;;;40.91;26.46;97259.31;5038260;28;20050;-82
2023/06/30 09:32:31;;;;;;;3.78;2.22;;;;;;;40.83;26.22;97261.88;5054613;28;20056;-82
2023/06/30 09:35:06;;;;;;;2.55;1.88;;;;;;;41.24;24.60;97243.53;5038049;28;20111;-82
2023/06/30 09:37:40;;;;;;;4.18;2.13;;;;;;;40.74;25.19;97249.63;5054735;28;20028;-83
2023/06/30 09:40:06;;;;;;;2.75;1.80;;;;;;;41.03;25.03;97248.53;5054481;28;20478;-82
2023/06/30 09:42:34;;;;;;;1.88;1.65;;;;;;;39.90;25.97;97248.81;5054301;28;20024;-83
2023/06/30 09:45:01;;;;;;;10.63;4.50;;;;;;;38.77;27.00;97240.22;5038224;28;20408;-83
2023/06/30 09:47:26;;;;;;;4.18;1.85;;;;;;;39.83;26.49;97253.94;5033607;28;20454;-82
2023/06/30 09:49:53;;;;;;;2.15;1.77;;;;;;;39.86;25.98;97244.94;5033074;28;20020;-82
2023/06/30 09:52:24;;;;;;;12.93;3.00;;;;;;;40.65;26.37;97240.19;5037557;28;20024;-82
2023/06/30 09:54:49;;;;;;;4.03;1.77;;;;;;;42.15;24.50;97237.53;5037786;28;20455;-83
2023/06/30 09:57:15;;;;;;;6.22;2.92;;;;;;;41.73;25.30;97240.38;5037274;28;20033;-82
2023/06/30 09:59:41;;;;;;;6.35;1.85;;;;;;;38.57;26.86;97242.19;5037095;28;20029;-82
2023/06/30 10:02:06;;;;;;;7.95;2.50;;;;;;;38.16;27.52;97233.78;5053871;28;20046;-81
2023/06/30 10:04:32;;;;;;;2.40;1.70;;;;;;;38.32;27.61;97234.63;5053475;28;20476;-82
2023/06/30 10:06:57;;;;;;;3.28;2.25;;;;;;;38.18;26.89;97219.53;5037036;28;20558;-82
2023/06/30 10:09:25;;;;;;;3.78;2.30;;;;;;;35.51;29.66;97219.44;5053340;28;20031;-82
2023/06/30 10:11:55;;;;;;;2.92;1.90;;;;;;;36.85;29.69;97222.09;5033425;28;20511;-82
2023/06/30 10:14:27;;;;;;;5.53;2.05;;;;;;;39.70;26.77;97218.13;5053738;28;20056;-83
2023/06/30 10:16:55;;;;;;;5.93;2.00;;;;;;;40.84;26.17;97213.88;5053957;28;20507;-84
2023/06/30 10:19:20;;;;;;;4.03;2.20;;;;;;;41.70;25.65;97212.88;5053665;28;20051;-82
2023/06/30 10:21:47;;;;;;;4.70;2.38;;;;;;;41.52;25.84;97211.75;5036911;28;20063;-85
2023/06/30 10:24:17;;;;;;;19.13;13.45;;;;;;;42.24;25.31;97206.75;5037267;28;20078;-85
2023/06/30 10:26:43;;;;;;;4.57;2.25;;;;;;;42.06;24.60;97187.91;5040633;28;20078;-83
2023/06/30 10:29:09;;;;;;;7.22;1.95;;;;;;;42.45;24.59;97201.66;5053641;28;20553;-84
2023/06/30 10:31:34;;;;;;;2.97;2.03;;;;;;;41.95;24.97;97197.66;5036107;28;20031;-83
2023/06/30 10:34:00;;;;;;;2.92;2.55;;;;;;;43.39;24.24;97199.34;5036023;28;20044;-84
2023/06/30 10:36:26;;;;;;;4.50;1.90;;;;;;;43.20;24.20;97194.63;5036833;28;20029;-85
2023/06/30 10:38:53;;;;;;;1.92;1.83;;;;;;;41.55;24.61;97187.81;5053189;28;20475;-84
2023/06/30 10:41:22;;;;;;;8.45;1.90;;;;;;;39.64;27.04;97190.38;5036858;28;20024;-84
2023/06/30 10:44:07;;;;;;;4.18;2.00;;;;;;;39.93;26.33;97178.16;5053148;28;20496;-83
2023/06/30 10:46:48;;;;;;;6.80;1.88;;;;;;;40.80;26.06;97176.31;5052931;28;20008;-83
2023/06/30 10:49:36;;;;;;;6.13;2.17;;;;;;;41.70;25.61;97181.97;5071134;28;20502;-84
2023/06/30 10:52:25;;;;;;;4.15;1.92;;;;;;;42.13;25.34;97165.88;5045675;28;20108;-84
2023/06/30 10:54:51;;;;;;;5.90;1.98;;;;;;;42.21;25.59;97168.00;5053082;28;20031;-83
2023/06/30 10:57:28;;;;;;;16.77;13.43;;;;;;;41.95;25.32;97163.91;5036323;28;20032;-84
2023/06/30 11:00:10;;;;;;;8.52;3.22;;;;;;;41.72;25.76;97147.94;5035327;28;20028;-87
2023/06/30 11:02:36;;;;;;;2.45;2.25;;;;;;;41.61;25.13;97152.88;5037664;28;20497;-81
2023/06/30 11:05:27;;;;;;;2.17;1.90;;;;;;;42.29;24.77;97149.59;5036411;28;20388;-83
2023/06/30 11:07:53;;;;;;;3.10;2.38;;;;;;;42.06;25.03;97160.63;5037769;28;20451;-83
2023/06/30 11:10:27;;;;;;;4.57;3.67;;;;;;;43.95;23.61;97156.66;5053107;28;20033;-82
2023/06/30 11:12:54;;;;;;;5.28;2.22;;;;;;;44.39;23.30;97147.41;5036254;28;20028;-84
2023/06/30 11:15:40;;;;;;;16.25;2.95;;;;;;;41.86;25.81;97146.91;5052939;28;20021;-83
2023/06/30 11:18:19;;;;;;;4.68;2.00;;;;;;;40.96;25.58;97130.13;5052733;28;20106;-82
2023/06/30 11:21:07;;;;;;;6.57;2.20;;;;;;;42.03;26.35;97144.38;5036625;28;20476;-84
2023/06/30 11:23:36;;;;;;;4.72;2.28;;;;;;;41.95;25.47;97147.88;5036108;28;20055;-83